Vowells Mill, Louisiana
Current Conditions -  °F | °C
As of 4:35 PM on Friday 24 Oct 2014 (Local Time) from KIER Reporting Station
Clear Clear  
Wind Chill: 77°   Ceiling: Unl
Heat Index: 78°   Visibility: 10mi
Dew Point: 52°   Wind: 5mph
Humidity: 42%   Direction: 20°NNE
Pressure: 30.11"   Gusts: NA
Location:  31.8112°N, 93.3051°W
Report Text: KIER 242135Z AUTO 02004KT 10SM CLR 25/11 A3011 RMK AO2 T02500113
Loading
Personal Weather Stations






























Interactive Weather Map
Tropical Storm Tracking
New forecast layout! Learn more

10-Day Weather Forecast

Advertisements
Track Severe Weather on mobile